Current Conditions
Partly Cloudy
Conditions



Pressure
30.03 (inHG) - 1016.92 (mb)
Visibility

10.0 (mimiles) - 16.1 (km)
   Temperature
90  °F
32°C
63  °F
Dewpoint
41  %
 Humidity
   Wind Speed
15  mph
13  kts
24  km/h
6.7  m/s
   Wind Direction
 220°
South West
   Airport Data
KORD
Location Chicago O'hare International 40 mi (64.36 km)
Metar :KORD 151751Z 22013G20KT 10SM FEW065 FEW150 FEW250 32/17 A3003 RMK AO2 SLP164 T03170172 10317 20244 58014
Mon 15th July 12:51 pm
   Raw Metar Info
Raw METAR is the most common format in the world for the transmission of observational weather data. It is highly standardized through the International Civil Aviation Organization (ICAO), which allows it to be understood throughout most of the world.
   API Info
Data Provided by
https://www.checkwx.com/weather/KORD
   © Info
CSS/SVG/PHP scripts were developed by weather34.com for use in the weather34 template © 2015-2019

Guide Info provided by Metar-Wikipedia